Карточка аэропорта UIUU

Внимание!
Информация на этой странице в стадии наполнения.
Если вы не увидели какой-то информации, или заметили неточность - пожалуйста сообщите нам!
Спасибо!
Команда RU-STAFF
Название аэропортаМухино
Название аэропорта (англ.)Mukhino
Превышение1699 ft. (517.9 m.)
Координаты51°48.45', 107°26.4'
Высота перехода1800m
Эшелон переходаFL090
Коды ответчика
Зона ОрВДИркутск РПИ (UIII)
Данные METARUIUU 262130Z 01002MPS 1700 1100N R26/P2000U FU FEW050CB M26/M29 Q1025 R26/820555 NOSIG RMK QFE725/0966
Проноз погоды (TAF)UIUU 262000Z 2621/2721 23003G08MPS 1400 BR FU BKN030CB TEMPO 2621/2703 0700 SHSN FU BKN011CB BECMG 2703/2705 4000 FU TEMPO 2705/2721 1400 SHSN FU BKN014CB
NOTAMshow/hide NOTAM
AWOS   TABLE

Информация о ВПП

ВПП Длина ВПП (м.) Покрытие Курс ВПП Частота ILS
083400Цементобетон83111.3
263400Цементобетон263110.3

Диспетчерские позиции

Позывной Наименование органа УВД Частота
UIUU_TWRУлан-Удэ-Вышка118.200
UIUU_APPУлан-Удэ-Подход129.300



Спутниковое изображение